Xin Dan Dong — BPBY — position and weather

sailwx.info

Track history (hours):
 
Tides and Currents Weather Stations Pressure Air Temp Water Temp Dewpoint Dewpoint Depression Visibility Wind Speed Wind Dir Waves Ship Positions

Xin Dan Dong

Last reported at 2014-Sep-17 01:11 UTC. Time now 2014-Sep-17 09:29 UTC.
Position N 22°39' E 113°41'.

Length 263 m; draft 11.9 m.

Type: Cargo ship. MMSI: 413153000.

Date/timePositionNaut miles runAvg speedWind from/ knotsBaromVisibWave heightAir tempDewpointWater temp
2014-Sep-17 01:11N 22°39' E 113°41'4 6.9
2014-Sep-17 00:33N 22°35' E 113°43'1514.8
2014-Sep-16 23:33N 22°21' E 113°48'1413.8
2014-Sep-16 22:33N 22°07' E 113°51'8 7.9
2014-Sep-16 21:33N 21°60' E 113°52'1 0.5
2014-Sep-16 19:30N 21°58' E 113°52'0 0.0
2014-Sep-16 18:30N 21°58' E 113°52'0 0.0
2014-Sep-16 17:30N 21°58' E 113°52'0 0.0
2014-Sep-16 16:18N 21°58' E 113°52'0 0.0
2014-Sep-16 15:24N 21°58' E 113°52'3 4.1
2014-Sep-16 14:33N 22°02' E 113°54'5 1.1
2014-Sep-16 09:32N 21°57' E 113°57'3 0.1
2014-Sep-15 14:30N 21°56' E 114°00'0 0.4
2014-Sep-15 13:28N 21°56' E 113°60'0 0.1
2014-Sep-15 11:10N 21°56' E 113°60'0 0.0
2014-Sep-15 10:28N 21°56' E 113°60'3 0.5
2014-Sep-15 04:17N 21°57' E 114°03'20412.2
2014-Sep-14 11:28N 23°07' E 117°31'1414.9
2014-Sep-14 10:31N 23°17' E 117°42'1714.4
2014-Sep-14 09:22N 23°27' E 117°56'1314.4
2014-Sep-14 08:29N 23°37' E 118°05'5413.5
2014-Sep-14 04:29N 24°14' E 118°48'1212.0
2014-Sep-14 03:31N 24°22' E 118°57'1212.3
2014-Sep-14 02:33N 24°29' E 119°07'1212.2
2014-Sep-14 01:34N 24°37' E 119°18'  
2014-Sep-11 19:14N 33°51' E 129°15'  
Track history (hours):
 
Tides and Currents Weather Stations Pressure Air Temp Water Temp Dewpoint Dewpoint Depression Visibility Wind Speed Wind Dir Waves Ship Positions

Xin Dan Dong

Last reported at 2014-Sep-17 01:11 UTC. Time now 2014-Sep-17 09:29 UTC.
Position N 22°39' E 113°41'.

Length 263 m; draft 11.9 m.

Type: Cargo ship. MMSI: 413153000.

Date/timePositionNaut miles runAvg speedWind from/ knotsBaromVisibWave heightAir tempDewpointWater temp
2014-Sep-17 01:11N 22°39' E 113°41'4 6.9
2014-Sep-17 00:33N 22°35' E 113°43'1514.8
2014-Sep-16 23:33N 22°21' E 113°48'1413.8
2014-Sep-16 22:33N 22°07' E 113°51'8 7.9
2014-Sep-16 21:33N 21°60' E 113°52'1 0.5
2014-Sep-16 19:30N 21°58' E 113°52'0 0.0
2014-Sep-16 18:30N 21°58' E 113°52'0 0.0
2014-Sep-16 17:30N 21°58' E 113°52'0 0.0
2014-Sep-16 16:18N 21°58' E 113°52'0 0.0
2014-Sep-16 15:24N 21°58' E 113°52'3 4.1
2014-Sep-16 14:33N 22°02' E 113°54'5 1.1
2014-Sep-16 09:32N 21°57' E 113°57'3 0.1
2014-Sep-15 14:30N 21°56' E 114°00'0 0.4
2014-Sep-15 13:28N 21°56' E 113°60'0 0.1
2014-Sep-15 11:10N 21°56' E 113°60'0 0.0
2014-Sep-15 10:28N 21°56' E 113°60'3 0.5
2014-Sep-15 04:17N 21°57' E 114°03'20412.2
2014-Sep-14 11:28N 23°07' E 117°31'1414.9
2014-Sep-14 10:31N 23°17' E 117°42'1714.4
2014-Sep-14 09:22N 23°27' E 117°56'1314.4
2014-Sep-14 08:29N 23°37' E 118°05'5413.5
2014-Sep-14 04:29N 24°14' E 118°48'1212.0
2014-Sep-14 03:31N 24°22' E 118°57'1212.3
2014-Sep-14 02:33N 24°29' E 119°07'1212.2
2014-Sep-14 01:34N 24°37' E 119°18'  
2014-Sep-11 19:14N 33°51' E 129°15'  

Dump ship's entire track history